Аэропорт: Белгород . Белгород

ICAO: UUOB

METAR:
2019-12-12 11:30:00
UUOB 121130Z 08003MPS 5000 BR OVC006 02/02 Q1021 R11/190057 NOSIG
METAR:
Информация по данной станции не доступна